Terminal Aerodrome Forecast
Issued by NWS Tulsa, OK

Home | Current Version | Previous Version | Text Only | Print | Product List | Glossary Off
Versions: 1 2 3 4 5 6 7 8 9 10 11 12

583
FTUS44 KTSA 271720
TAFFSM
TAF
KFSM 271720Z 2718/2818 18012KT P6SM OVC040
     FM272000 19013G21KT P6SM OVC050
      TEMPO 2802/2806 1SM TSRA BKN015CB
     FM280600 VRB04KT P6SM OVC050 PROB30 2806/2809 1SM TSRA BKN015CB
     FM280900 30006KT 4SM BR OVC007=

USA.gov is the U.S. government's official web portal to all federal, state and local government web resources and services.